sensor_id;sensor_type;location;lat;lon;timestamp;P1;durP1;ratioP1;P2;durP2;ratioP2
57337;SDS011;43173;50.980;18.204;2023-07-20T00:01:38;12.20;;;4.40;;
57337;SDS011;43173;50.980;18.204;2023-07-20T00:04:04;6.20;;;4.30;;
57337;SDS011;43173;50.980;18.204;2023-07-20T00:06:30;5.10;;;3.30;;
57337;SDS011;43173;50.980;18.204;2023-07-20T00:08:55;5.90;;;3.10;;
57337;SDS011;43173;50.980;18.204;2023-07-20T00:11:24;8.60;;;3.50;;
57337;SDS011;43173;50.980;18.204;2023-07-20T00:13:51;7.70;;;3.30;;
57337;SDS011;43173;50.980;18.204;2023-07-20T00:16:16;7.10;;;3.70;;
57337;SDS011;43173;50.980;18.204;2023-07-20T00:18:42;5.40;;;2.80;;
57337;SDS011;43173;50.980;18.204;2023-07-20T00:21:08;6.80;;;3.30;;
57337;SDS011;43173;50.980;18.204;2023-07-20T00:23:33;6.30;;;3.60;;
57337;SDS011;43173;50.980;18.204;2023-07-20T00:25:59;7.20;;;3.40;;
57337;SDS011;43173;50.980;18.204;2023-07-20T00:28:24;6.80;;;3.40;;
57337;SDS011;43173;50.980;18.204;2023-07-20T00:30:50;8.70;;;3.50;;
57337;SDS011;43173;50.980;18.204;2023-07-20T00:33:16;8.60;;;3.10;;
57337;SDS011;43173;50.980;18.204;2023-07-20T00:35:43;6.00;;;3.10;;
57337;SDS011;43173;50.980;18.204;2023-07-20T00:38:09;9.50;;;3.30;;
57337;SDS011;43173;50.980;18.204;2023-07-20T00:40:36;8.30;;;3.10;;
57337;SDS011;43173;50.980;18.204;2023-07-20T00:43:02;6.10;;;3.20;;
57337;SDS011;43173;50.980;18.204;2023-07-20T00:45:29;9.40;;;3.10;;
57337;SDS011;43173;50.980;18.204;2023-07-20T00:47:55;11.00;;;3.20;;
57337;SDS011;43173;50.980;18.204;2023-07-20T00:50:21;9.20;;;3.60;;
57337;SDS011;43173;50.980;18.204;2023-07-20T00:52:47;6.80;;;2.90;;
57337;SDS011;43173;50.980;18.204;2023-07-20T00:55:14;7.90;;;3.10;;
57337;SDS011;43173;50.980;18.204;2023-07-20T00:57:39;8.50;;;3.00;;
57337;SDS011;43173;50.980;18.204;2023-07-20T01:00:05;4.60;;;3.00;;
57337;SDS011;43173;50.980;18.204;2023-07-20T01:02:32;4.90;;;2.80;;
57337;SDS011;43173;50.980;18.204;2023-07-20T01:04:58;5.00;;;3.00;;
57337;SDS011;43173;50.980;18.204;2023-07-20T01:07:28;4.30;;;3.10;;
57337;SDS011;43173;50.980;18.204;2023-07-20T01:10:05;5.90;;;3.00;;
57337;SDS011;43173;50.980;18.204;2023-07-20T01:12:41;5.70;;;3.20;;
57337;SDS011;43173;50.980;18.204;2023-07-20T01:15:08;5.50;;;3.50;;
57337;SDS011;43173;50.980;18.204;2023-07-20T01:17:34;4.70;;;2.80;;
57337;SDS011;43173;50.980;18.204;2023-07-20T01:20:01;6.80;;;2.90;;
57337;SDS011;43173;50.980;18.204;2023-07-20T01:30:28;7.00;;;3.10;;
57337;SDS011;43173;50.980;18.204;2023-07-20T01:33:01;5.80;;;3.70;;
57337;SDS011;43173;50.980;18.204;2023-07-20T01:35:28;4.70;;;3.30;;
57337;SDS011;43173;50.980;18.204;2023-07-20T01:37:54;4.40;;;3.10;;
57337;SDS011;43173;50.980;18.204;2023-07-20T01:40:20;5.70;;;3.60;;
57337;SDS011;43173;50.980;18.204;2023-07-20T01:42:48;7.90;;;4.00;;
57337;SDS011;43173;50.980;18.204;2023-07-20T01:45:13;6.10;;;4.00;;
57337;SDS011;43173;50.980;18.204;2023-07-20T01:47:39;9.50;;;4.70;;
57337;SDS011;43173;50.980;18.204;2023-07-20T01:50:05;6.70;;;4.60;;
57337;SDS011;43173;50.980;18.204;2023-07-20T01:52:32;9.50;;;4.40;;
57337;SDS011;43173;50.980;18.204;2023-07-20T01:54:57;9.40;;;4.80;;
57337;SDS011;43173;50.980;18.204;2023-07-20T01:57:23;7.30;;;5.20;;
57337;SDS011;43173;50.980;18.204;2023-07-20T01:59:49;9.70;;;5.50;;
57337;SDS011;43173;50.980;18.204;2023-07-20T02:02:14;8.40;;;6.00;;
57337;SDS011;43173;50.980;18.204;2023-07-20T02:04:40;8.90;;;4.30;;
57337;SDS011;43173;50.980;18.204;2023-07-20T02:07:06;6.20;;;4.60;;
57337;SDS011;43173;50.980;18.204;2023-07-20T02:09:31;6.60;;;3.50;;
57337;SDS011;43173;50.980;18.204;2023-07-20T02:11:57;7.00;;;3.80;;
57337;SDS011;43173;50.980;18.204;2023-07-20T02:14:23;6.90;;;3.40;;
57337;SDS011;43173;50.980;18.204;2023-07-20T02:16:48;7.60;;;3.40;;
57337;SDS011;43173;50.980;18.204;2023-07-20T02:19:17;10.60;;;4.50;;
57337;SDS011;43173;50.980;18.204;2023-07-20T02:21:44;7.40;;;4.20;;
57337;SDS011;43173;50.980;18.204;2023-07-20T02:24:11;7.20;;;4.10;;
57337;SDS011;43173;50.980;18.204;2023-07-20T02:26:38;5.70;;;4.00;;
57337;SDS011;43173;50.980;18.204;2023-07-20T02:29:03;7.90;;;4.40;;
57337;SDS011;43173;50.980;18.204;2023-07-20T02:31:30;10.80;;;5.00;;
57337;SDS011;43173;50.980;18.204;2023-07-20T02:33:56;8.50;;;4.00;;
57337;SDS011;43173;50.980;18.204;2023-07-20T02:36:22;8.00;;;4.40;;
57337;SDS011;43173;50.980;18.204;2023-07-20T02:38:48;7.50;;;5.10;;
57337;SDS011;43173;50.980;18.204;2023-07-20T02:41:13;8.80;;;5.80;;
57337;SDS011;43173;50.980;18.204;2023-07-20T02:43:39;9.10;;;6.40;;
57337;SDS011;43173;50.980;18.204;2023-07-20T02:46:05;13.00;;;7.70;;
57337;SDS011;43173;50.980;18.204;2023-07-20T02:48:31;16.10;;;9.20;;
57337;SDS011;43173;50.980;18.204;2023-07-20T02:50:56;8.80;;;6.50;;
57337;SDS011;43173;50.980;18.204;2023-07-20T02:53:22;7.70;;;4.70;;
57337;SDS011;43173;50.980;18.204;2023-07-20T02:55:47;9.10;;;5.10;;
57337;SDS011;43173;50.980;18.204;2023-07-20T02:58:13;8.20;;;5.10;;
57337;SDS011;43173;50.980;18.204;2023-07-20T03:00:39;7.40;;;4.50;;
57337;SDS011;43173;50.980;18.204;2023-07-20T03:03:04;5.10;;;4.00;;
57337;SDS011;43173;50.980;18.204;2023-07-20T03:05:34;5.40;;;4.70;;
57337;SDS011;43173;50.980;18.204;2023-07-20T03:08:03;6.60;;;4.70;;
57337;SDS011;43173;50.980;18.204;2023-07-20T03:10:31;6.60;;;4.60;;
57337;SDS011;43173;50.980;18.204;2023-07-20T03:12:57;7.40;;;4.70;;
57337;SDS011;43173;50.980;18.204;2023-07-20T03:15:23;6.00;;;4.70;;
57337;SDS011;43173;50.980;18.204;2023-07-20T03:17:49;7.60;;;5.20;;
57337;SDS011;43173;50.980;18.204;2023-07-20T03:20:14;6.60;;;5.20;;
57337;SDS011;43173;50.980;18.204;2023-07-20T03:22:41;8.40;;;6.20;;
57337;SDS011;43173;50.980;18.204;2023-07-20T03:27:37;12.90;;;7.20;;
57337;SDS011;43173;50.980;18.204;2023-07-20T03:32:35;14.50;;;9.40;;
57337;SDS011;43173;50.980;18.204;2023-07-20T03:35:01;13.40;;;10.30;;
57337;SDS011;43173;50.980;18.204;2023-07-20T03:37:27;13.10;;;8.20;;
57337;SDS011;43173;50.980;18.204;2023-07-20T03:39:52;7.60;;;5.90;;
57337;SDS011;43173;50.980;18.204;2023-07-20T03:42:18;11.90;;;6.70;;
57337;SDS011;43173;50.980;18.204;2023-07-20T03:44:44;8.90;;;5.80;;
57337;SDS011;43173;50.980;18.204;2023-07-20T03:47:09;8.60;;;6.70;;
57337;SDS011;43173;50.980;18.204;2023-07-20T03:49:35;11.60;;;6.10;;
57337;SDS011;43173;50.980;18.204;2023-07-20T03:52:01;8.40;;;6.20;;
57337;SDS011;43173;50.980;18.204;2023-07-20T03:54:28;17.20;;;7.40;;
57337;SDS011;43173;50.980;18.204;2023-07-20T03:56:54;7.60;;;5.70;;
57337;SDS011;43173;50.980;18.204;2023-07-20T03:59:20;9.60;;;5.40;;
57337;SDS011;43173;50.980;18.204;2023-07-20T04:01:46;11.00;;;6.00;;
57337;SDS011;43173;50.980;18.204;2023-07-20T04:04:11;7.10;;;5.00;;
57337;SDS011;43173;50.980;18.204;2023-07-20T04:06:37;7.10;;;5.30;;
57337;SDS011;43173;50.980;18.204;2023-07-20T04:09:03;8.70;;;5.60;;
57337;SDS011;43173;50.980;18.204;2023-07-20T04:11:30;12.00;;;4.90;;
57337;SDS011;43173;50.980;18.204;2023-07-20T04:13:55;7.30;;;5.40;;
57337;SDS011;43173;50.980;18.204;2023-07-20T04:16:21;7.10;;;5.10;;
57337;SDS011;43173;50.980;18.204;2023-07-20T04:18:47;8.70;;;5.40;;
57337;SDS011;43173;50.980;18.204;2023-07-20T04:21:12;9.30;;;5.30;;
57337;SDS011;43173;50.980;18.204;2023-07-20T04:23:38;8.40;;;5.30;;
57337;SDS011;43173;50.980;18.204;2023-07-20T04:26:04;7.70;;;5.00;;
57337;SDS011;43173;50.980;18.204;2023-07-20T04:28:29;7.80;;;5.40;;
57337;SDS011;43173;50.980;18.204;2023-07-20T04:30:58;7.60;;;5.00;;
57337;SDS011;43173;50.980;18.204;2023-07-20T04:33:34;7.10;;;4.80;;
57337;SDS011;43173;50.980;18.204;2023-07-20T04:36:01;7.20;;;5.50;;
57337;SDS011;43173;50.980;18.204;2023-07-20T04:38:27;8.10;;;4.90;;
57337;SDS011;43173;50.980;18.204;2023-07-20T04:40:52;6.50;;;4.50;;
57337;SDS011;43173;50.980;18.204;2023-07-20T04:43:18;8.10;;;5.10;;
57337;SDS011;43173;50.980;18.204;2023-07-20T04:45:43;9.10;;;5.30;;
57337;SDS011;43173;50.980;18.204;2023-07-20T04:48:10;7.30;;;4.50;;
57337;SDS011;43173;50.980;18.204;2023-07-20T04:50:38;7.20;;;4.60;;
57337;SDS011;43173;50.980;18.204;2023-07-20T04:53:05;5.60;;;4.90;;
57337;SDS011;43173;50.980;18.204;2023-07-20T04:55:31;7.00;;;4.60;;
57337;SDS011;43173;50.980;18.204;2023-07-20T04:58:00;5.60;;;4.00;;
57337;SDS011;43173;50.980;18.204;2023-07-20T05:00:26;6.80;;;4.50;;
57337;SDS011;43173;50.980;18.204;2023-07-20T05:02:52;5.10;;;3.90;;
57337;SDS011;43173;50.980;18.204;2023-07-20T05:05:17;4.90;;;3.90;;
57337;SDS011;43173;50.980;18.204;2023-07-20T05:07:44;6.60;;;4.10;;
57337;SDS011;43173;50.980;18.204;2023-07-20T05:10:09;6.40;;;3.50;;
57337;SDS011;43173;50.980;18.204;2023-07-20T05:12:35;6.60;;;3.70;;
57337;SDS011;43173;50.980;18.204;2023-07-20T05:15:01;5.90;;;3.90;;
57337;SDS011;43173;50.980;18.204;2023-07-20T05:17:26;7.00;;;5.50;;
57337;SDS011;43173;50.980;18.204;2023-07-20T05:19:52;11.70;;;7.30;;
57337;SDS011;43173;50.980;18.204;2023-07-20T05:22:17;6.80;;;5.50;;
57337;SDS011;43173;50.980;18.204;2023-07-20T05:24:44;5.50;;;5.00;;
57337;SDS011;43173;50.980;18.204;2023-07-20T05:27:09;7.90;;;5.90;;
57337;SDS011;43173;50.980;18.204;2023-07-20T05:29:35;6.70;;;4.00;;
57337;SDS011;43173;50.980;18.204;2023-07-20T05:32:01;8.10;;;4.60;;
57337;SDS011;43173;50.980;18.204;2023-07-20T05:34:28;5.10;;;3.50;;
57337;SDS011;43173;50.980;18.204;2023-07-20T05:36:54;6.10;;;4.10;;
57337;SDS011;43173;50.980;18.204;2023-07-20T05:39:20;7.10;;;4.70;;
57337;SDS011;43173;50.980;18.204;2023-07-20T05:41:46;7.00;;;4.40;;
57337;SDS011;43173;50.980;18.204;2023-07-20T05:44:12;6.20;;;5.00;;
57337;SDS011;43173;50.980;18.204;2023-07-20T05:46:37;6.60;;;4.30;;
57337;SDS011;43173;50.980;18.204;2023-07-20T05:49:03;9.10;;;5.50;;
57337;SDS011;43173;50.980;18.204;2023-07-20T05:51:28;7.20;;;4.00;;
57337;SDS011;43173;50.980;18.204;2023-07-20T05:53:54;11.20;;;5.50;;
57337;SDS011;43173;50.980;18.204;2023-07-20T05:56:20;8.60;;;5.90;;
57337;SDS011;43173;50.980;18.204;2023-07-20T05:58:45;5.10;;;3.50;;
57337;SDS011;43173;50.980;18.204;2023-07-20T06:01:11;10.00;;;6.60;;
57337;SDS011;43173;50.980;18.204;2023-07-20T06:03:36;9.10;;;6.00;;
57337;SDS011;43173;50.980;18.204;2023-07-20T06:06:02;11.00;;;6.60;;
57337;SDS011;43173;50.980;18.204;2023-07-20T06:08:29;12.10;;;9.00;;
57337;SDS011;43173;50.980;18.204;2023-07-20T06:10:56;9.60;;;8.60;;
57337;SDS011;43173;50.980;18.204;2023-07-20T06:13:22;8.80;;;7.30;;
57337;SDS011;43173;50.980;18.204;2023-07-20T06:15:48;10.30;;;6.90;;
57337;SDS011;43173;50.980;18.204;2023-07-20T06:18:13;10.40;;;8.20;;
57337;SDS011;43173;50.980;18.204;2023-07-20T06:20:39;7.20;;;6.10;;
57337;SDS011;43173;50.980;18.204;2023-07-20T06:23:05;12.00;;;8.40;;
57337;SDS011;43173;50.980;18.204;2023-07-20T06:25:30;9.70;;;7.80;;
57337;SDS011;43173;50.980;18.204;2023-07-20T06:27:56;9.70;;;6.40;;
57337;SDS011;43173;50.980;18.204;2023-07-20T06:30:22;7.60;;;6.50;;
57337;SDS011;43173;50.980;18.204;2023-07-20T06:32:48;10.80;;;8.00;;
57337;SDS011;43173;50.980;18.204;2023-07-20T06:35:14;8.40;;;6.70;;
57337;SDS011;43173;50.980;18.204;2023-07-20T06:37:40;9.60;;;6.50;;
57337;SDS011;43173;50.980;18.204;2023-07-20T06:40:07;8.00;;;6.10;;
57337;SDS011;43173;50.980;18.204;2023-07-20T06:42:34;10.10;;;5.90;;
57337;SDS011;43173;50.980;18.204;2023-07-20T06:45:00;9.60;;;6.20;;
57337;SDS011;43173;50.980;18.204;2023-07-20T06:47:26;9.40;;;6.20;;
57337;SDS011;43173;50.980;18.204;2023-07-20T06:49:52;7.80;;;6.30;;
57337;SDS011;43173;50.980;18.204;2023-07-20T06:52:18;7.40;;;5.20;;
57337;SDS011;43173;50.980;18.204;2023-07-20T06:54:44;7.00;;;5.30;;
57337;SDS011;43173;50.980;18.204;2023-07-20T06:57:10;8.60;;;5.80;;
57337;SDS011;43173;50.980;18.204;2023-07-20T06:59:36;7.70;;;5.80;;
57337;SDS011;43173;50.980;18.204;2023-07-20T07:02:02;10.90;;;5.60;;
57337;SDS011;43173;50.980;18.204;2023-07-20T07:04:27;7.00;;;4.90;;
57337;SDS011;43173;50.980;18.204;2023-07-20T07:06:53;5.80;;;4.70;;
57337;SDS011;43173;50.980;18.204;2023-07-20T07:09:19;5.50;;;4.90;;
57337;SDS011;43173;50.980;18.204;2023-07-20T07:11:46;7.60;;;4.00;;
57337;SDS011;43173;50.980;18.204;2023-07-20T07:14:11;5.00;;;3.70;;
57337;SDS011;43173;50.980;18.204;2023-07-20T07:16:38;4.80;;;3.70;;
57337;SDS011;43173;50.980;18.204;2023-07-20T07:19:03;5.20;;;3.50;;
57337;SDS011;43173;50.980;18.204;2023-07-20T07:21:31;5.30;;;3.60;;
57337;SDS011;43173;50.980;18.204;2023-07-20T07:23:57;5.90;;;4.00;;
57337;SDS011;43173;50.980;18.204;2023-07-20T07:26:24;6.00;;;3.70;;
57337;SDS011;43173;50.980;18.204;2023-07-20T07:28:50;4.80;;;3.30;;
57337;SDS011;43173;50.980;18.204;2023-07-20T07:31:15;4.70;;;2.80;;
57337;SDS011;43173;50.980;18.204;2023-07-20T07:33:41;4.50;;;2.40;;
57337;SDS011;43173;50.980;18.204;2023-07-20T07:36:06;3.90;;;2.40;;
57337;SDS011;43173;50.980;18.204;2023-07-20T07:38:32;3.60;;;2.50;;
57337;SDS011;43173;50.980;18.204;2023-07-20T07:40:58;3.20;;;2.40;;
57337;SDS011;43173;50.980;18.204;2023-07-20T07:43:24;4.40;;;2.40;;
57337;SDS011;43173;50.980;18.204;2023-07-20T07:45:50;4.50;;;2.40;;
57337;SDS011;43173;50.980;18.204;2023-07-20T07:48:15;4.10;;;2.40;;
57337;SDS011;43173;50.980;18.204;2023-07-20T07:50:41;2.50;;;1.80;;
57337;SDS011;43173;50.980;18.204;2023-07-20T07:53:07;4.60;;;2.00;;
57337;SDS011;43173;50.980;18.204;2023-07-20T07:55:34;2.40;;;1.90;;
57337;SDS011;43173;50.980;18.204;2023-07-20T07:58:00;5.10;;;1.80;;
57337;SDS011;43173;50.980;18.204;2023-07-20T08:00:26;3.50;;;1.90;;
57337;SDS011;43173;50.980;18.204;2023-07-20T08:02:52;3.20;;;2.20;;
57337;SDS011;43173;50.980;18.204;2023-07-20T08:05:17;3.60;;;1.90;;
57337;SDS011;43173;50.980;18.204;2023-07-20T08:07:43;4.20;;;2.20;;
57337;SDS011;43173;50.980;18.204;2023-07-20T08:10:08;2.80;;;2.10;;
57337;SDS011;43173;50.980;18.204;2023-07-20T08:12:34;4.20;;;2.50;;
57337;SDS011;43173;50.980;18.204;2023-07-20T08:14:59;2.50;;;2.10;;
57337;SDS011;43173;50.980;18.204;2023-07-20T08:17:25;2.20;;;1.80;;
57337;SDS011;43173;50.980;18.204;2023-07-20T08:19:51;3.50;;;1.90;;
57337;SDS011;43173;50.980;18.204;2023-07-20T08:22:16;2.70;;;2.00;;
57337;SDS011;43173;50.980;18.204;2023-07-20T08:24:42;2.00;;;1.70;;
57337;SDS011;43173;50.980;18.204;2023-07-20T08:27:08;3.20;;;1.80;;
57337;SDS011;43173;50.980;18.204;2023-07-20T08:29:37;3.10;;;1.50;;
57337;SDS011;43173;50.980;18.204;2023-07-20T08:32:03;2.90;;;1.80;;
57337;SDS011;43173;50.980;18.204;2023-07-20T08:34:30;2.10;;;1.70;;
57337;SDS011;43173;50.980;18.204;2023-07-20T08:36:56;3.00;;;1.70;;
57337;SDS011;43173;50.980;18.204;2023-07-20T08:39:22;2.60;;;1.80;;
57337;SDS011;43173;50.980;18.204;2023-07-20T08:41:49;4.00;;;1.90;;
57337;SDS011;43173;50.980;18.204;2023-07-20T08:44:15;3.50;;;1.90;;
57337;SDS011;43173;50.980;18.204;2023-07-20T08:46:41;4.00;;;2.00;;
57337;SDS011;43173;50.980;18.204;2023-07-20T08:49:08;4.50;;;2.20;;
57337;SDS011;43173;50.980;18.204;2023-07-20T08:51:34;2.90;;;1.90;;
57337;SDS011;43173;50.980;18.204;2023-07-20T08:54:01;2.50;;;2.00;;
57337;SDS011;43173;50.980;18.204;2023-07-20T08:56:28;3.40;;;1.90;;
57337;SDS011;43173;50.980;18.204;2023-07-20T08:58:56;4.70;;;2.10;;
57337;SDS011;43173;50.980;18.204;2023-07-20T09:01:22;3.90;;;2.00;;
57337;SDS011;43173;50.980;18.204;2023-07-20T09:03:48;3.50;;;2.00;;
57337;SDS011;43173;50.980;18.204;2023-07-20T09:06:14;2.80;;;2.10;;
57337;SDS011;43173;50.980;18.204;2023-07-20T09:08:41;3.40;;;2.00;;
57337;SDS011;43173;50.980;18.204;2023-07-20T09:11:07;2.90;;;1.80;;
57337;SDS011;43173;50.980;18.204;2023-07-20T09:13:34;6.30;;;2.40;;
57337;SDS011;43173;50.980;18.204;2023-07-20T09:16:00;4.80;;;1.90;;
57337;SDS011;43173;50.980;18.204;2023-07-20T09:18:26;3.90;;;2.30;;
57337;SDS011;43173;50.980;18.204;2023-07-20T09:20:53;3.30;;;2.00;;
57337;SDS011;43173;50.980;18.204;2023-07-20T09:26:13;5.40;;;1.90;;
57337;SDS011;43173;50.980;18.204;2023-07-20T09:28:44;2.50;;;2.20;;
57337;SDS011;43173;50.980;18.204;2023-07-20T09:31:18;2.70;;;1.90;;
57337;SDS011;43173;50.980;18.204;2023-07-20T09:33:44;3.30;;;2.40;;
57337;SDS011;43173;50.980;18.204;2023-07-20T09:36:11;2.90;;;2.10;;
57337;SDS011;43173;50.980;18.204;2023-07-20T09:38:37;3.80;;;2.20;;
57337;SDS011;43173;50.980;18.204;2023-07-20T09:41:06;4.20;;;2.40;;
57337;SDS011;43173;50.980;18.204;2023-07-20T09:43:32;3.60;;;2.50;;
57337;SDS011;43173;50.980;18.204;2023-07-20T09:45:59;3.00;;;2.20;;
57337;SDS011;43173;50.980;18.204;2023-07-20T09:48:25;5.80;;;2.40;;
57337;SDS011;43173;50.980;18.204;2023-07-20T09:50:52;4.10;;;2.20;;
57337;SDS011;43173;50.980;18.204;2023-07-20T09:53:18;5.40;;;2.80;;
57337;SDS011;43173;50.980;18.204;2023-07-20T09:55:45;3.70;;;2.20;;
57337;SDS011;43173;50.980;18.204;2023-07-20T09:58:12;2.90;;;1.90;;
57337;SDS011;43173;50.980;18.204;2023-07-20T10:00:39;5.40;;;1.90;;
57337;SDS011;43173;50.980;18.204;2023-07-20T10:03:06;5.00;;;2.20;;
57337;SDS011;43173;50.980;18.204;2023-07-20T10:05:32;2.90;;;1.50;;
57337;SDS011;43173;50.980;18.204;2023-07-20T10:08:00;2.20;;;2.00;;
57337;SDS011;43173;50.980;18.204;2023-07-20T10:10:27;2.80;;;1.80;;
57337;SDS011;43173;50.980;18.204;2023-07-20T10:12:54;4.80;;;2.30;;
57337;SDS011;43173;50.980;18.204;2023-07-20T10:15:24;2.80;;;1.80;;
57337;SDS011;43173;50.980;18.204;2023-07-20T10:20:36;4.10;;;2.30;;
57337;SDS011;43173;50.980;18.204;2023-07-20T10:23:03;5.60;;;2.30;;
57337;SDS011;43173;50.980;18.204;2023-07-20T10:25:29;5.30;;;2.80;;
57337;SDS011;43173;50.980;18.204;2023-07-20T10:27:56;6.00;;;2.90;;
57337;SDS011;43173;50.980;18.204;2023-07-20T10:30:23;5.00;;;3.10;;
57337;SDS011;43173;50.980;18.204;2023-07-20T10:32:50;7.10;;;4.20;;
57337;SDS011;43173;50.980;18.204;2023-07-20T10:35:16;6.40;;;3.10;;
57337;SDS011;43173;50.980;18.204;2023-07-20T10:40:34;5.60;;;3.20;;
57337;SDS011;43173;50.980;18.204;2023-07-20T10:43:06;5.70;;;2.70;;
57337;SDS011;43173;50.980;18.204;2023-07-20T10:45:34;5.80;;;3.30;;
57337;SDS011;43173;50.980;18.204;2023-07-20T10:48:19;6.50;;;3.30;;
57337;SDS011;43173;50.980;18.204;2023-07-20T10:51:08;5.20;;;3.20;;
57337;SDS011;43173;50.980;18.204;2023-07-20T10:53:39;4.00;;;3.20;;
57337;SDS011;43173;50.980;18.204;2023-07-20T10:56:06;6.10;;;3.50;;
57337;SDS011;43173;50.980;18.204;2023-07-20T10:58:33;7.30;;;3.40;;
57337;SDS011;43173;50.980;18.204;2023-07-20T11:01:00;5.60;;;3.60;;
57337;SDS011;43173;50.980;18.204;2023-07-20T11:03:31;4.60;;;3.60;;
57337;SDS011;43173;50.980;18.204;2023-07-20T11:21:36;2.70;;;2.10;;
57337;SDS011;43173;50.980;18.204;2023-07-20T11:24:06;5.00;;;2.20;;
57337;SDS011;43173;50.980;18.204;2023-07-20T11:29:18;2.50;;;2.10;;
57337;SDS011;43173;50.980;18.204;2023-07-20T11:31:45;1.90;;;1.70;;
57337;SDS011;43173;50.980;18.204;2023-07-20T11:34:13;1.90;;;1.50;;
57337;SDS011;43173;50.980;18.204;2023-07-20T11:36:41;1.40;;;1.30;;
57337;SDS011;43173;50.980;18.204;2023-07-20T11:39:08;2.10;;;1.70;;
57337;SDS011;43173;50.980;18.204;2023-07-20T11:41:35;4.40;;;1.60;;
57337;SDS011;43173;50.980;18.204;2023-07-20T11:44:00;2.70;;;1.90;;
57337;SDS011;43173;50.980;18.204;2023-07-20T11:46:27;3.80;;;2.00;;
57337;SDS011;43173;50.980;18.204;2023-07-20T11:49:00;3.50;;;1.70;;
57337;SDS011;43173;50.980;18.204;2023-07-20T11:51:31;2.40;;;1.30;;
57337;SDS011;43173;50.980;18.204;2023-07-20T11:53:57;1.30;;;1.20;;
57337;SDS011;43173;50.980;18.204;2023-07-20T11:56:26;3.20;;;1.20;;
57337;SDS011;43173;50.980;18.204;2023-07-20T11:58:56;2.10;;;1.10;;
57337;SDS011;43173;50.980;18.204;2023-07-20T12:01:26;1.40;;;1.00;;
57337;SDS011;43173;50.980;18.204;2023-07-20T12:03:57;1.10;;;0.90;;
57337;SDS011;43173;50.980;18.204;2023-07-20T12:06:24;2.00;;;1.00;;
57337;SDS011;43173;50.980;18.204;2023-07-20T12:08:50;2.40;;;0.90;;
57337;SDS011;43173;50.980;18.204;2023-07-20T12:14:04;1.10;;;0.70;;
57337;SDS011;43173;50.980;18.204;2023-07-20T12:16:32;1.10;;;0.80;;
57337;SDS011;43173;50.980;18.204;2023-07-20T12:18:59;2.00;;;1.10;;
57337;SDS011;43173;50.980;18.204;2023-07-20T12:21:26;0.90;;;0.90;;
57337;SDS011;43173;50.980;18.204;2023-07-20T12:23:52;1.30;;;1.10;;
57337;SDS011;43173;50.980;18.204;2023-07-20T12:26:17;1.20;;;1.00;;
57337;SDS011;43173;50.980;18.204;2023-07-20T12:28:43;1.40;;;1.30;;
57337;SDS011;43173;50.980;18.204;2023-07-20T12:31:09;1.30;;;1.20;;
57337;SDS011;43173;50.980;18.204;2023-07-20T12:33:37;1.90;;;1.30;;
57337;SDS011;43173;50.980;18.204;2023-07-20T12:36:03;2.50;;;1.20;;
57337;SDS011;43173;50.980;18.204;2023-07-20T12:38:30;1.20;;;1.10;;
57337;SDS011;43173;50.980;18.204;2023-07-20T12:41:00;1.80;;;1.20;;
57337;SDS011;43173;50.980;18.204;2023-07-20T12:43:26;1.80;;;0.80;;
57337;SDS011;43173;50.980;18.204;2023-07-20T12:45:51;3.60;;;1.00;;
57337;SDS011;43173;50.980;18.204;2023-07-20T12:48:17;1.50;;;1.30;;
57337;SDS011;43173;50.980;18.204;2023-07-20T12:50:43;1.50;;;1.10;;
57337;SDS011;43173;50.980;18.204;2023-07-20T12:53:09;1.30;;;1.10;;
57337;SDS011;43173;50.980;18.204;2023-07-20T12:55:35;1.20;;;1.00;;
57337;SDS011;43173;50.980;18.204;2023-07-20T12:58:00;1.80;;;1.20;;
57337;SDS011;43173;50.980;18.204;2023-07-20T13:00:26;2.00;;;1.20;;
57337;SDS011;43173;50.980;18.204;2023-07-20T13:02:52;8.00;;;1.50;;
57337;SDS011;43173;50.980;18.204;2023-07-20T13:05:17;2.70;;;1.10;;
57337;SDS011;43173;50.980;18.204;2023-07-20T13:07:43;1.50;;;1.00;;
57337;SDS011;43173;50.980;18.204;2023-07-20T13:10:09;1.90;;;0.80;;
57337;SDS011;43173;50.980;18.204;2023-07-20T13:12:36;1.10;;;0.90;;
57337;SDS011;43173;50.980;18.204;2023-07-20T13:15:02;2.90;;;1.40;;
57337;SDS011;43173;50.980;18.204;2023-07-20T13:17:33;2.40;;;1.10;;
57337;SDS011;43173;50.980;18.204;2023-07-20T13:19:59;2.20;;;1.30;;
57337;SDS011;43173;50.980;18.204;2023-07-20T13:22:25;2.90;;;1.40;;
57337;SDS011;43173;50.980;18.204;2023-07-20T13:24:50;3.00;;;1.50;;
57337;SDS011;43173;50.980;18.204;2023-07-20T13:27:16;1.40;;;1.30;;
57337;SDS011;43173;50.980;18.204;2023-07-20T13:29:43;2.60;;;1.50;;
57337;SDS011;43173;50.980;18.204;2023-07-20T13:32:09;3.40;;;1.10;;
57337;SDS011;43173;50.980;18.204;2023-07-20T13:34:36;1.30;;;1.00;;
57337;SDS011;43173;50.980;18.204;2023-07-20T13:37:02;2.90;;;1.10;;
57337;SDS011;43173;50.980;18.204;2023-07-20T13:39:28;2.60;;;1.10;;
57337;SDS011;43173;50.980;18.204;2023-07-20T13:41:54;3.40;;;1.20;;
57337;SDS011;43173;50.980;18.204;2023-07-20T13:44:20;2.30;;;1.10;;
57337;SDS011;43173;50.980;18.204;2023-07-20T13:46:46;2.10;;;1.20;;
57337;SDS011;43173;50.980;18.204;2023-07-20T13:49:12;3.00;;;1.20;;
57337;SDS011;43173;50.980;18.204;2023-07-20T13:51:39;2.40;;;1.00;;
57337;SDS011;43173;50.980;18.204;2023-07-20T13:54:05;2.50;;;1.30;;
57337;SDS011;43173;50.980;18.204;2023-07-20T13:56:31;2.10;;;1.30;;
57337;SDS011;43173;50.980;18.204;2023-07-20T13:58:57;2.10;;;1.30;;
57337;SDS011;43173;50.980;18.204;2023-07-20T14:01:22;2.40;;;1.80;;
57337;SDS011;43173;50.980;18.204;2023-07-20T14:03:50;1.30;;;1.20;;
57337;SDS011;43173;50.980;18.204;2023-07-20T14:06:16;1.70;;;1.60;;
57337;SDS011;43173;50.980;18.204;2023-07-20T14:08:42;2.20;;;1.80;;
57337;SDS011;43173;50.980;18.204;2023-07-20T14:11:12;2.30;;;1.90;;
57337;SDS011;43173;50.980;18.204;2023-07-20T14:13:38;2.10;;;1.50;;
57337;SDS011;43173;50.980;18.204;2023-07-20T14:16:04;2.90;;;1.60;;
57337;SDS011;43173;50.980;18.204;2023-07-20T14:18:30;1.30;;;1.20;;
57337;SDS011;43173;50.980;18.204;2023-07-20T14:20:56;2.10;;;1.30;;
57337;SDS011;43173;50.980;18.204;2023-07-20T14:23:22;1.30;;;1.10;;
57337;SDS011;43173;50.980;18.204;2023-07-20T14:25:48;1.40;;;1.20;;
57337;SDS011;43173;50.980;18.204;2023-07-20T14:28:15;1.00;;;0.90;;
57337;SDS011;43173;50.980;18.204;2023-07-20T14:30:41;1.30;;;1.00;;
57337;SDS011;43173;50.980;18.204;2023-07-20T14:33:06;0.90;;;0.90;;
57337;SDS011;43173;50.980;18.204;2023-07-20T14:35:33;1.70;;;1.10;;
57337;SDS011;43173;50.980;18.204;2023-07-20T14:38:00;1.30;;;1.20;;
57337;SDS011;43173;50.980;18.204;2023-07-20T14:40:26;1.20;;;1.10;;
57337;SDS011;43173;50.980;18.204;2023-07-20T14:42:52;1.60;;;1.10;;
57337;SDS011;43173;50.980;18.204;2023-07-20T14:45:18;1.60;;;1.30;;
57337;SDS011;43173;50.980;18.204;2023-07-20T14:47:44;1.10;;;1.00;;
57337;SDS011;43173;50.980;18.204;2023-07-20T14:50:10;1.30;;;1.10;;
57337;SDS011;43173;50.980;18.204;2023-07-20T14:52:36;3.10;;;1.40;;
57337;SDS011;43173;50.980;18.204;2023-07-20T14:55:02;1.60;;;1.30;;
57337;SDS011;43173;50.980;18.204;2023-07-20T14:57:29;1.80;;;1.20;;
57337;SDS011;43173;50.980;18.204;2023-07-20T14:59:54;1.30;;;0.90;;
57337;SDS011;43173;50.980;18.204;2023-07-20T15:02:20;1.20;;;1.10;;
57337;SDS011;43173;50.980;18.204;2023-07-20T15:04:48;1.30;;;1.10;;
57337;SDS011;43173;50.980;18.204;2023-07-20T15:07:15;1.20;;;1.10;;
57337;SDS011;43173;50.980;18.204;2023-07-20T15:09:41;3.10;;;1.20;;
57337;SDS011;43173;50.980;18.204;2023-07-20T15:12:07;2.30;;;1.10;;